createdAt,value
2022-10-18T00:01:23.315Z,8.20
2022-10-18T00:03:51.003Z,9.30
2022-10-18T00:06:18.643Z,8.20
2022-10-18T00:08:46.296Z,8.70
2022-10-18T00:11:14.001Z,8.10
2022-10-18T00:13:43.435Z,8.40
2022-10-18T00:16:16.720Z,8.20
2022-10-18T00:18:48.273Z,8.70
2022-10-18T00:21:19.893Z,8.00
2022-10-18T00:23:51.062Z,8.80
2022-10-18T00:26:26.518Z,7.80
2022-10-18T00:29:01.653Z,7.80
2022-10-18T00:31:38.578Z,8.60
2022-10-18T00:34:11.238Z,8.70
2022-10-18T00:36:41.304Z,8.40
2022-10-18T00:39:14.212Z,8.60
2022-10-18T00:41:41.987Z,8.00
2022-10-18T00:44:12.641Z,7.70
2022-10-18T00:46:48.276Z,7.90
2022-10-18T00:49:21.798Z,8.30
2022-10-18T00:52:00.382Z,8.40
2022-10-18T00:54:32.750Z,9.60
2022-10-18T00:57:02.421Z,8.10
2022-10-18T00:59:32.280Z,7.90
2022-10-18T01:02:04.487Z,8.30
2022-10-18T01:04:34.109Z,8.00
2022-10-18T01:07:20.117Z,7.60
2022-10-18T01:10:01.602Z,8.10
2022-10-18T01:12:47.617Z,8.00
2022-10-18T01:15:39.075Z,7.90
2022-10-18T01:18:30.249Z,8.20
2022-10-18T01:21:16.300Z,7.60
2022-10-18T01:24:22.093Z,7.80
2022-10-18T01:27:16.937Z,7.30
2022-10-18T01:29:53.638Z,7.60
2022-10-18T01:32:34.426Z,7.80
2022-10-18T01:35:07.777Z,8.20
2022-10-18T01:40:09.281Z,7.50
2022-10-18T01:42:37.059Z,8.00
2022-10-18T01:45:07.955Z,7.70
2022-10-18T01:47:38.385Z,7.80
2022-10-18T01:50:06.908Z,7.80
2022-10-18T01:52:36.535Z,8.20
2022-10-18T01:55:06.568Z,8.30
2022-10-18T01:57:40.736Z,7.30
2022-10-18T02:00:25.086Z,5.90
2022-10-18T02:03:13.984Z,7.70
2022-10-18T02:06:16.888Z,7.60
2022-10-18T02:08:56.960Z,7.80
2022-10-18T02:11:28.344Z,7.70
2022-10-18T02:14:09.111Z,7.40
2022-10-18T02:16:45.948Z,7.80
2022-10-18T02:19:29.892Z,7.60
2022-10-18T02:22:00.730Z,6.90
2022-10-18T02:24:38.069Z,6.60
2022-10-18T02:27:07.675Z,7.70
2022-10-18T02:29:37.669Z,7.20
2022-10-18T02:32:26.459Z,7.00
2022-10-18T02:35:04.705Z,6.80
2022-10-18T02:37:40.469Z,6.80
2022-10-18T02:40:10.613Z,7.50
2022-10-18T02:42:48.775Z,7.10
2022-10-18T02:45:18.000Z,7.20
2022-10-18T02:47:45.771Z,7.00
2022-10-18T02:50:15.371Z,7.20
2022-10-18T02:52:46.557Z,7.80
2022-10-18T02:55:14.236Z,7.70
2022-10-18T02:57:41.923Z,7.60
2022-10-18T03:00:10.703Z,7.60
2022-10-18T03:02:38.386Z,7.90
2022-10-18T03:05:06.190Z,8.40
2022-10-18T03:07:34.013Z,8.30
2022-10-18T03:10:05.590Z,7.40
2022-10-18T03:12:33.461Z,6.60
2022-10-18T03:15:01.200Z,7.10
2022-10-18T03:17:29.031Z,7.60
2022-10-18T03:19:58.335Z,7.70
2022-10-18T03:25:01.417Z,6.30
2022-10-18T03:27:29.352Z,7.10
2022-10-18T03:30:01.547Z,7.50
2022-10-18T03:32:31.623Z,6.80
2022-10-18T03:35:01.196Z,7.20
2022-10-18T03:37:28.859Z,7.90
2022-10-18T03:39:56.597Z,7.20
2022-10-18T03:42:24.331Z,6.10
2022-10-18T03:44:52.039Z,6.80
2022-10-18T03:47:21.683Z,7.70
2022-10-18T03:49:52.001Z,6.70
2022-10-18T03:54:50.540Z,7.60
2022-10-18T03:57:20.041Z,6.80
2022-10-18T03:59:48.806Z,7.00
2022-10-18T04:02:16.487Z,7.10
2022-10-18T04:04:44.147Z,7.50
2022-10-18T04:07:11.811Z,7.10
2022-10-18T04:09:39.539Z,7.20
2022-10-18T04:12:07.239Z,6.70
2022-10-18T04:14:34.860Z,7.20
2022-10-18T04:17:04.537Z,6.90
2022-10-18T04:19:34.161Z,7.00
2022-10-18T04:22:03.672Z,7.00
2022-10-18T04:24:33.278Z,6.20
2022-10-18T04:27:00.926Z,7.00
2022-10-18T04:29:28.574Z,6.90
2022-10-18T04:31:56.285Z,6.80
2022-10-18T04:34:24.355Z,6.40
2022-10-18T04:36:52.207Z,6.50
2022-10-18T04:39:22.030Z,7.00
2022-10-18T04:41:49.685Z,7.00
2022-10-18T04:44:17.334Z,6.60
2022-10-18T04:46:45.055Z,7.00
2022-10-18T04:49:12.835Z,7.20
2022-10-18T04:51:40.616Z,6.80
2022-10-18T04:54:08.329Z,6.80
2022-10-18T04:56:36.150Z,7.50
2022-10-18T04:59:03.935Z,7.60
2022-10-18T05:01:31.762Z,7.10
2022-10-18T05:03:59.587Z,7.60
2022-10-18T05:06:27.533Z,7.10
2022-10-18T05:08:57.010Z,7.40
2022-10-18T05:11:24.700Z,6.90
2022-10-18T05:13:52.447Z,7.00
2022-10-18T05:16:20.106Z,7.70
2022-10-18T05:18:48.576Z,7.50
2022-10-18T05:21:18.178Z,7.10
2022-10-18T05:23:47.723Z,7.80
2022-10-18T05:26:15.454Z,7.60
2022-10-18T05:28:43.144Z,7.20
2022-10-18T05:31:12.797Z,7.10
2022-10-18T05:33:40.605Z,7.60
2022-10-18T05:36:10.397Z,7.50
2022-10-18T05:38:44.300Z,7.60
2022-10-18T05:41:14.218Z,8.10
2022-10-18T05:43:41.904Z,7.80
2022-10-18T05:46:15.456Z,7.50
2022-10-18T05:48:44.716Z,7.70
2022-10-18T05:51:14.528Z,8.30
2022-10-18T05:53:42.246Z,7.40
2022-10-18T05:56:12.167Z,8.30
2022-10-18T05:58:42.768Z,7.80
2022-10-18T06:01:11.484Z,8.20
2022-10-18T06:03:39.218Z,8.20
2022-10-18T06:06:10.685Z,7.70
2022-10-18T06:08:41.964Z,8.00
2022-10-18T06:11:15.442Z,7.60
2022-10-18T06:13:48.517Z,8.00
2022-10-18T06:16:19.992Z,7.70
2022-10-18T06:18:50.776Z,7.90
2022-10-18T06:21:21.007Z,7.70
2022-10-18T06:23:51.826Z,8.30
2022-10-18T06:26:21.729Z,8.20
2022-10-18T06:28:49.642Z,7.70
2022-10-18T06:31:18.560Z,7.70
2022-10-18T06:33:48.515Z,7.80
2022-10-18T06:36:22.748Z,7.40
2022-10-18T06:38:51.720Z,7.40
2022-10-18T06:41:22.076Z,7.60
2022-10-18T06:43:53.791Z,8.70
2022-10-18T06:46:21.558Z,7.50
2022-10-18T06:48:51.005Z,7.20
2022-10-18T06:51:21.649Z,8.40
2022-10-18T06:53:59.617Z,7.60
2022-10-18T06:56:36.231Z,8.60
2022-10-18T06:59:03.922Z,7.70
2022-10-18T07:01:33.714Z,7.90
2022-10-18T07:04:04.404Z,7.70
2022-10-18T07:06:33.785Z,7.30
2022-10-18T07:09:05.592Z,7.80
2022-10-18T07:11:33.317Z,7.50
2022-10-18T07:14:04.971Z,7.50
2022-10-18T07:16:36.191Z,7.40
2022-10-18T07:19:03.872Z,6.80
2022-10-18T07:21:32.358Z,6.30
2022-10-18T07:24:01.952Z,7.40
2022-10-18T07:26:33.434Z,7.00
2022-10-18T07:29:07.849Z,7.50
2022-10-18T07:31:38.804Z,9.00
2022-10-18T07:34:10.723Z,8.80
2022-10-18T07:36:38.554Z,8.40
2022-10-18T07:39:07.152Z,7.50
2022-10-18T07:41:35.537Z,7.20
2022-10-18T07:44:05.959Z,7.50
2022-10-18T07:46:33.818Z,7.30
2022-10-18T07:49:03.276Z,6.90
2022-10-18T07:51:33.028Z,6.90
2022-10-18T07:54:00.755Z,7.50
2022-10-18T07:56:28.606Z,7.10
2022-10-18T07:58:58.080Z,6.40
2022-10-18T08:01:27.669Z,6.30
2022-10-18T08:03:55.405Z,7.00
2022-10-18T08:06:24.927Z,7.30
2022-10-18T08:08:53.972Z,6.40
2022-10-18T08:11:25.120Z,6.70
2022-10-18T08:13:54.949Z,6.40
2022-10-18T08:16:27.915Z,6.60
2022-10-18T08:18:59.164Z,6.50
2022-10-18T08:21:27.150Z,7.70
2022-10-18T08:23:56.643Z,6.70
2022-10-18T08:26:26.148Z,7.20
2022-10-18T08:28:54.352Z,7.20
2022-10-18T08:31:28.281Z,7.30
2022-10-18T08:33:58.138Z,6.80
2022-10-18T08:36:25.835Z,6.80
2022-10-18T08:38:53.523Z,7.10
2022-10-18T08:41:45.923Z,7.80
2022-10-18T08:44:30.021Z,6.50
2022-10-18T08:47:08.732Z,6.50
2022-10-18T08:49:52.384Z,6.50
2022-10-18T08:52:45.227Z,7.00
2022-10-18T08:55:20.993Z,6.40
2022-10-18T08:57:49.236Z,6.50
2022-10-18T09:00:19.655Z,7.30
2022-10-18T09:03:14.389Z,7.20
2022-10-18T09:05:53.363Z,7.20
2022-10-18T09:08:30.041Z,6.40
2022-10-18T09:11:12.207Z,7.40
2022-10-18T09:13:57.275Z,7.20
2022-10-18T09:16:54.386Z,7.80
2022-10-18T09:19:56.641Z,7.50
2022-10-18T09:22:57.950Z,7.10
2022-10-18T09:25:46.746Z,6.80
2022-10-18T09:28:23.302Z,6.80
2022-10-18T09:31:12.119Z,7.30
2022-10-18T09:33:58.901Z,6.80
2022-10-18T09:36:35.814Z,6.60
2022-10-18T09:39:16.111Z,5.90
2022-10-18T09:41:50.204Z,6.30
2022-10-18T09:44:41.443Z,7.10
2022-10-18T09:47:21.827Z,6.30
2022-10-18T09:50:01.984Z,6.70
2022-10-18T09:52:48.717Z,6.00
2022-10-18T09:55:25.102Z,7.00
2022-10-18T09:57:58.773Z,6.40
2022-10-18T10:00:33.750Z,6.60
2022-10-18T10:03:08.137Z,7.00
2022-10-18T10:05:35.808Z,6.70
2022-10-18T10:08:05.916Z,6.50
2022-10-18T10:10:38.315Z,6.50
2022-10-18T10:13:09.154Z,6.60
2022-10-18T10:15:38.299Z,6.70
2022-10-18T10:18:26.371Z,6.90
2022-10-18T10:20:59.704Z,6.60
2022-10-18T10:23:44.690Z,5.90
2022-10-18T10:26:32.193Z,6.80
2022-10-18T10:29:00.746Z,6.50
2022-10-18T10:31:31.924Z,7.40
2022-10-18T10:34:28.866Z,6.60
2022-10-18T10:36:56.818Z,6.40
2022-10-18T10:39:25.514Z,6.00
2022-10-18T10:41:58.782Z,5.70
2022-10-18T10:44:35.525Z,5.50
2022-10-18T10:47:06.890Z,5.80
2022-10-18T10:49:48.093Z,6.10
2022-10-18T10:52:29.082Z,5.50
2022-10-18T10:55:11.406Z,6.20
2022-10-18T10:57:55.901Z,5.80
2022-10-18T11:00:45.241Z,6.60
2022-10-18T11:03:34.743Z,6.40
2022-10-18T11:06:26.434Z,6.10
2022-10-18T11:08:59.149Z,5.70
2022-10-18T11:11:35.592Z,6.30
2022-10-18T11:14:27.076Z,5.60
2022-10-18T11:17:21.751Z,5.60
2022-10-18T11:20:10.737Z,6.00
2022-10-18T11:22:49.106Z,6.30
2022-10-18T11:25:18.506Z,5.80
2022-10-18T11:28:01.676Z,5.90
2022-10-18T11:30:53.549Z,5.70
2022-10-18T11:33:42.931Z,5.90
2022-10-18T11:37:09.741Z,6.30
2022-10-18T11:40:08.242Z,6.00
2022-10-18T11:43:03.559Z,6.80
2022-10-18T11:45:50.711Z,6.90
2022-10-18T11:48:46.201Z,6.20
2022-10-18T11:51:50.324Z,7.00
2022-10-18T11:55:10.079Z,6.30
2022-10-18T11:58:03.845Z,6.00
2022-10-18T12:00:50.987Z,6.50
2022-10-18T12:03:28.726Z,5.80
2022-10-18T12:06:01.895Z,5.40
2022-10-18T12:11:15.247Z,6.00
2022-10-18T12:13:57.007Z,5.80
2022-10-18T12:16:50.058Z,6.30
2022-10-18T12:19:27.626Z,6.70
2022-10-18T12:22:07.472Z,6.70
2022-10-18T12:24:37.926Z,5.70
2022-10-18T12:27:06.064Z,5.70
2022-10-18T12:29:53.383Z,5.60
2022-10-18T12:32:38.499Z,6.00
2022-10-18T12:35:19.669Z,5.90
2022-10-18T12:38:17.859Z,5.90
2022-10-18T12:40:54.454Z,5.40
2022-10-18T12:43:38.573Z,5.60
2022-10-18T12:46:13.827Z,5.50
2022-10-18T12:48:50.650Z,5.90
2022-10-18T12:51:22.462Z,5.60
2022-10-18T12:53:57.109Z,6.20
2022-10-18T12:56:27.581Z,6.60
2022-10-18T12:59:15.899Z,7.40
2022-10-18T13:01:52.982Z,6.30
2022-10-18T13:04:28.574Z,6.10
2022-10-18T13:06:58.225Z,5.50
2022-10-18T13:09:36.980Z,6.00
2022-10-18T13:12:10.624Z,6.10
2022-10-18T13:15:13.364Z,5.60
2022-10-18T13:18:18.412Z,5.60
2022-10-18T13:21:10.126Z,5.60
2022-10-18T13:24:13.634Z,5.50
2022-10-18T13:30:03.072Z,5.70
2022-10-18T13:32:57.606Z,5.80
2022-10-18T13:35:49.135Z,6.70
2022-10-18T13:38:38.337Z,6.10
2022-10-18T13:41:12.628Z,5.70
2022-10-18T13:44:22.405Z,6.60
2022-10-18T13:46:50.183Z,5.90
2022-10-18T13:49:30.997Z,6.90
2022-10-18T13:52:40.479Z,6.60
2022-10-18T13:55:29.714Z,6.10
2022-10-18T13:58:25.212Z,6.60
2022-10-18T14:01:14.374Z,7.90
2022-10-18T14:04:21.677Z,7.00
2022-10-18T14:06:52.312Z,6.40
2022-10-18T14:09:40.227Z,6.80
2022-10-18T14:12:27.799Z,7.30
2022-10-18T14:15:03.839Z,7.40
2022-10-18T14:17:46.984Z,7.30
2022-10-18T14:20:29.373Z,7.00
2022-10-18T14:23:27.200Z,7.50
2022-10-18T14:26:29.863Z,7.50
2022-10-18T14:29:18.834Z,7.00
2022-10-18T14:31:56.431Z,8.20
2022-10-18T14:34:24.121Z,8.10
2022-10-18T14:36:51.972Z,9.10
2022-10-18T14:39:26.730Z,9.90
2022-10-18T14:41:58.092Z,9.40
2022-10-18T14:44:31.685Z,9.20
2022-10-18T14:47:15.577Z,7.90
2022-10-18T14:49:45.990Z,10.20
2022-10-18T14:52:17.365Z,8.50
2022-10-18T14:54:47.280Z,8.70
2022-10-18T14:57:33.951Z,8.70
2022-10-18T15:00:29.858Z,7.90
2022-10-18T15:03:00.581Z,8.20
2022-10-18T15:05:28.386Z,7.40
2022-10-18T15:08:00.186Z,7.60
2022-10-18T15:10:33.692Z,7.90
2022-10-18T15:13:10.175Z,8.90
2022-10-18T15:15:41.914Z,8.60
2022-10-18T15:18:23.061Z,9.00
2022-10-18T15:21:12.263Z,8.80
2022-10-18T15:23:39.928Z,9.60
2022-10-18T15:26:14.434Z,9.30
2022-10-18T15:28:54.353Z,9.20
2022-10-18T15:31:31.932Z,10.70
2022-10-18T15:34:20.387Z,10.50
2022-10-18T15:36:52.205Z,12.90
2022-10-18T15:39:31.281Z,14.50
2022-10-18T15:42:02.625Z,13.20
2022-10-18T15:44:46.559Z,12.90
2022-10-18T15:47:17.827Z,13.50
2022-10-18T15:49:45.490Z,13.40
2022-10-18T15:52:33.943Z,14.80
2022-10-18T15:55:30.909Z,15.50
2022-10-18T15:58:20.482Z,14.90
2022-10-18T16:00:50.684Z,15.40
2022-10-18T16:03:22.306Z,13.80
2022-10-18T16:06:00.633Z,12.90
2022-10-18T16:08:38.205Z,12.80
2022-10-18T16:11:09.307Z,12.30
2022-10-18T16:13:37.155Z,12.80
2022-10-18T16:16:05.131Z,13.50
2022-10-18T16:18:36.063Z,14.30
2022-10-18T16:21:03.925Z,14.80
2022-10-18T16:23:34.605Z,14.10
2022-10-18T16:26:02.383Z,13.50
2022-10-18T16:28:32.973Z,14.90
2022-10-18T16:31:04.252Z,13.70
2022-10-18T16:33:32.489Z,12.80
2022-10-18T16:36:00.629Z,11.80
2022-10-18T16:38:35.531Z,12.30
2022-10-18T16:41:07.366Z,12.30
2022-10-18T16:43:35.603Z,13.40
2022-10-18T16:46:07.861Z,13.50
2022-10-18T16:48:37.686Z,13.60
2022-10-18T16:51:05.627Z,14.70
2022-10-18T16:53:35.439Z,14.30
2022-10-18T16:56:12.595Z,14.00
2022-10-18T16:58:41.442Z,13.00
2022-10-18T17:01:14.209Z,12.40
2022-10-18T17:03:44.257Z,13.50
2022-10-18T17:06:26.605Z,12.40
2022-10-18T17:08:56.280Z,12.50
2022-10-18T17:11:29.408Z,11.30
2022-10-18T17:13:57.427Z,12.00
2022-10-18T17:16:30.075Z,12.40
2022-10-18T17:19:02.220Z,12.10
2022-10-18T17:21:34.684Z,12.50
2022-10-18T17:24:08.506Z,11.80
2022-10-18T17:26:36.296Z,11.70
2022-10-18T17:29:08.353Z,11.60
2022-10-18T17:31:36.280Z,12.30
2022-10-18T17:34:05.132Z,11.70
2022-10-18T17:36:33.803Z,11.00
2022-10-18T17:39:03.063Z,11.20
2022-10-18T17:41:31.392Z,12.00
2022-10-18T17:43:59.749Z,11.30
2022-10-18T17:46:27.947Z,12.50
2022-10-18T17:49:00.899Z,12.20
2022-10-18T17:51:28.860Z,11.80
2022-10-18T17:53:56.741Z,10.50
2022-10-18T17:56:31.174Z,11.70
2022-10-18T17:59:05.592Z,11.30
2022-10-18T18:01:34.467Z,10.80
2022-10-18T18:04:03.584Z,10.90
2022-10-18T18:06:39.065Z,11.10
2022-10-18T18:09:13.196Z,10.40
2022-10-18T18:11:44.135Z,9.30
2022-10-18T18:14:12.131Z,10.90
2022-10-18T18:16:44.041Z,11.70
2022-10-18T18:19:27.150Z,10.80
2022-10-18T18:21:59.880Z,10.80
2022-10-18T18:24:28.866Z,11.90
2022-10-18T18:27:00.600Z,12.10
2022-10-18T18:29:30.234Z,10.90
2022-10-18T18:32:00.562Z,11.50
2022-10-18T18:34:31.182Z,10.90
2022-10-18T18:36:59.306Z,10.90
2022-10-18T18:39:35.305Z,10.40
2022-10-18T18:42:06.914Z,10.80
2022-10-18T18:44:38.602Z,11.00
2022-10-18T18:47:10.875Z,11.40
2022-10-18T18:49:41.543Z,10.50
2022-10-18T18:52:09.660Z,9.90
2022-10-18T18:54:37.392Z,10.80
2022-10-18T18:57:10.601Z,11.30
2022-10-18T18:59:38.419Z,11.50
2022-10-18T19:02:07.279Z,11.60
2022-10-18T19:04:37.151Z,12.10
2022-10-18T19:07:04.837Z,11.20
2022-10-18T19:09:33.015Z,10.90
2022-10-18T19:12:00.811Z,10.80
2022-10-18T19:14:29.681Z,11.80
2022-10-18T19:17:04.925Z,11.20
2022-10-18T19:19:32.687Z,11.40
2022-10-18T19:22:03.626Z,10.60
2022-10-18T19:24:34.731Z,10.70
2022-10-18T19:27:14.506Z,11.60
2022-10-18T19:29:42.346Z,11.00
2022-10-18T19:32:14.286Z,10.80
2022-10-18T19:34:44.394Z,10.90
2022-10-18T19:37:17.232Z,11.50
2022-10-18T19:39:45.069Z,10.00
2022-10-18T19:42:18.628Z,10.70
2022-10-18T19:44:48.988Z,10.90
2022-10-18T19:47:21.409Z,10.00
2022-10-18T19:49:55.722Z,10.10
2022-10-18T19:52:23.397Z,10.50
2022-10-18T19:54:51.186Z,10.20
2022-10-18T19:57:18.865Z,10.20
2022-10-18T19:59:47.368Z,9.10
2022-10-18T20:02:15.282Z,10.00
2022-10-18T20:04:43.010Z,10.30
2022-10-18T20:07:11.091Z,10.40
2022-10-18T20:09:40.095Z,9.70
2022-10-18T20:12:09.596Z,9.10
2022-10-18T20:14:37.319Z,9.70
2022-10-18T20:17:06.074Z,9.70
2022-10-18T20:19:35.100Z,9.40
2022-10-18T20:22:03.245Z,10.20
2022-10-18T20:24:30.981Z,9.40
2022-10-18T20:26:58.645Z,9.30
2022-10-18T20:29:26.944Z,9.00
2022-10-18T20:31:56.331Z,8.60
2022-10-18T20:34:28.499Z,10.30
2022-10-18T20:36:56.230Z,9.90
2022-10-18T20:39:24.978Z,9.70
2022-10-18T20:41:52.669Z,9.20
2022-10-18T20:44:22.789Z,9.20
2022-10-18T20:46:50.699Z,9.60
2022-10-18T20:49:19.446Z,10.10
2022-10-18T20:51:49.783Z,10.30
2022-10-18T20:54:17.399Z,9.40
2022-10-18T20:56:45.872Z,9.60
2022-10-18T20:59:14.206Z,9.80
2022-10-18T21:01:42.098Z,10.20
2022-10-18T21:04:10.966Z,9.30
2022-10-18T21:06:42.755Z,9.80
2022-10-18T21:09:18.908Z,10.10
2022-10-18T21:11:50.748Z,12.20
2022-10-18T21:14:20.942Z,11.00
2022-10-18T21:16:50.526Z,10.20
2022-10-18T21:19:26.879Z,10.60
2022-10-18T21:21:58.669Z,10.20
2022-10-18T21:24:27.898Z,10.70
2022-10-18T21:26:56.842Z,11.50
2022-10-18T21:29:25.116Z,11.30
2022-10-18T21:31:55.794Z,10.90
2022-10-18T21:34:23.815Z,11.70
2022-10-18T21:36:53.012Z,11.50
2022-10-18T21:41:51.978Z,13.30
2022-10-18T21:44:20.276Z,13.10
2022-10-18T21:46:48.055Z,13.20
2022-10-18T21:49:16.510Z,13.00
2022-10-18T21:51:44.971Z,14.30
2022-10-18T21:54:16.325Z,13.90
2022-10-18T21:56:45.410Z,14.70
2022-10-18T21:59:14.850Z,14.80
2022-10-18T22:01:44.632Z,14.20
2022-10-18T22:04:21.845Z,13.40
2022-10-18T22:06:50.906Z,8.80
2022-10-18T22:09:21.353Z,6.20
2022-10-18T22:11:52.928Z,5.90
2022-10-18T22:14:22.458Z,6.20
2022-10-18T22:16:51.194Z,6.30
2022-10-18T22:19:20.391Z,5.70
2022-10-18T22:21:48.302Z,5.70
2022-10-18T22:24:17.927Z,5.20
2022-10-18T22:26:46.533Z,5.00
2022-10-18T22:29:17.477Z,4.80
2022-10-18T22:31:51.995Z,4.30
2022-10-18T22:34:23.041Z,4.10
2022-10-18T22:36:51.111Z,4.50
2022-10-18T22:39:19.920Z,3.40
2022-10-18T22:41:52.485Z,3.80
2022-10-18T22:44:20.175Z,3.60
2022-10-18T22:46:47.835Z,3.80
2022-10-18T22:49:17.333Z,3.90
2022-10-18T22:51:45.083Z,3.50
2022-10-18T22:54:15.213Z,3.40
2022-10-18T22:56:42.851Z,3.30
2022-10-18T22:59:11.231Z,3.30
2022-10-18T23:01:38.880Z,3.60
2022-10-18T23:04:06.816Z,3.50
2022-10-18T23:06:36.278Z,3.80
2022-10-18T23:09:07.817Z,3.60
2022-10-18T23:11:37.137Z,3.30
2022-10-18T23:14:06.362Z,2.90
2022-10-18T23:16:35.833Z,3.00
2022-10-18T23:19:03.747Z,2.40
2022-10-18T23:21:31.607Z,2.40
2022-10-18T23:23:59.303Z,2.30
2022-10-18T23:26:29.561Z,1.90
2022-10-18T23:28:57.386Z,2.00
2022-10-18T23:31:28.905Z,3.10
2022-10-18T23:34:01.275Z,2.10
2022-10-18T23:36:29.343Z,2.50
2022-10-18T23:38:57.949Z,2.90
2022-10-18T23:41:26.839Z,2.50
2022-10-18T23:43:54.905Z,2.50
2022-10-18T23:46:22.697Z,3.00
2022-10-18T23:48:50.654Z,1.90
2022-10-18T23:51:19.724Z,2.30
2022-10-18T23:53:47.483Z,2.20
2022-10-18T23:56:18.159Z,2.10
2022-10-18T23:58:46.337Z,1.80
